createdAt,value
2022-10-04T00:00:29.234Z,6.25
2022-10-04T00:03:05.546Z,5.97
2022-10-04T00:05:33.332Z,5.15
2022-10-04T00:08:25.131Z,7.40
2022-10-04T00:11:03.569Z,6.25
2022-10-04T00:13:31.238Z,4.82
2022-10-04T00:15:58.407Z,8.52
2022-10-04T00:18:45.950Z,4.80
2022-10-04T00:21:13.073Z,4.50
2022-10-04T00:23:39.826Z,5.20
2022-10-04T00:26:15.211Z,6.13
2022-10-04T00:28:45.634Z,5.28
2022-10-04T00:31:22.348Z,4.88
2022-10-04T00:33:50.972Z,6.27
2022-10-04T00:36:23.735Z,7.78
2022-10-04T00:39:04.770Z,6.22
2022-10-04T00:41:50.244Z,4.53
2022-10-04T00:44:33.348Z,5.82
2022-10-04T00:47:03.583Z,4.27
2022-10-04T00:49:36.735Z,7.82
2022-10-04T00:52:13.407Z,6.05
2022-10-04T00:54:49.852Z,4.95
2022-10-04T00:57:28.556Z,4.20
2022-10-04T01:00:15.212Z,6.00
2022-10-04T01:03:06.653Z,5.78
2022-10-04T01:05:41.207Z,5.13
2022-10-04T01:08:26.066Z,6.82
2022-10-04T01:11:02.037Z,6.18
2022-10-04T01:13:44.219Z,5.43
2022-10-04T01:16:18.019Z,5.70
2022-10-04T01:18:45.638Z,8.63
2022-10-04T01:21:26.595Z,5.28
2022-10-04T01:24:14.653Z,7.40
2022-10-04T01:26:43.661Z,6.00
2022-10-04T01:29:25.870Z,9.32
2022-10-04T01:31:55.286Z,8.25
2022-10-04T01:34:26.210Z,4.30
2022-10-04T01:36:55.928Z,5.18
2022-10-04T01:39:24.910Z,4.57
2022-10-04T01:42:05.612Z,5.55
2022-10-04T01:44:43.233Z,6.28
2022-10-04T01:47:14.990Z,5.97
2022-10-04T01:49:45.809Z,4.85
2022-10-04T01:52:27.551Z,5.17
2022-10-04T01:55:14.000Z,5.55
2022-10-04T01:58:00.390Z,4.82
2022-10-04T02:00:28.820Z,6.18
2022-10-04T02:03:01.311Z,5.15
2022-10-04T02:05:35.774Z,5.10
2022-10-04T02:08:08.231Z,4.80
2022-10-04T02:10:39.793Z,6.18
2022-10-04T02:13:14.594Z,5.05
2022-10-04T02:15:42.292Z,6.53
2022-10-04T02:18:24.008Z,8.53
2022-10-04T02:20:52.490Z,13.30
2022-10-04T02:23:21.388Z,13.25
2022-10-04T02:25:48.967Z,13.75
2022-10-04T02:28:16.799Z,12.40
2022-10-04T02:30:50.952Z,9.43
2022-10-04T02:33:18.128Z,22.77
2022-10-04T02:35:47.994Z,24.15
2022-10-04T02:38:23.852Z,7.82
2022-10-04T02:40:59.173Z,8.30
2022-10-04T02:43:48.738Z,5.30
2022-10-04T02:46:50.051Z,4.38
2022-10-04T02:49:32.772Z,4.53
2022-10-04T02:52:08.207Z,4.63
2022-10-04T02:54:43.412Z,5.40
2022-10-04T02:57:16.569Z,4.90
2022-10-04T02:59:43.753Z,6.80
2022-10-04T03:02:29.858Z,6.00
2022-10-04T03:05:12.248Z,4.35
2022-10-04T03:07:40.533Z,4.15
2022-10-04T03:10:12.371Z,4.57
2022-10-04T03:12:43.032Z,5.05
2022-10-04T03:15:12.340Z,5.95
2022-10-04T03:17:41.996Z,7.22
2022-10-04T03:20:11.055Z,6.25
2022-10-04T03:22:42.622Z,4.13
2022-10-04T03:25:18.790Z,5.18
2022-10-04T03:27:45.820Z,4.80
2022-10-04T03:30:23.409Z,6.82
2022-10-04T03:32:51.010Z,4.25
2022-10-04T03:35:39.220Z,4.90
2022-10-04T03:38:09.329Z,4.28
2022-10-04T03:40:38.750Z,4.88
2022-10-04T03:43:06.821Z,4.95
2022-10-04T03:45:34.751Z,4.72
2022-10-04T03:48:08.270Z,5.30
2022-10-04T03:50:42.411Z,10.00
2022-10-04T03:53:25.497Z,4.38
2022-10-04T03:55:52.369Z,4.82
2022-10-04T03:58:20.832Z,4.53
2022-10-04T04:01:11.912Z,4.90
2022-10-04T04:04:00.689Z,4.60
2022-10-04T04:06:37.785Z,5.70
2022-10-04T04:09:06.449Z,4.45
2022-10-04T04:11:34.032Z,8.57
2022-10-04T04:14:01.045Z,6.33
2022-10-04T04:16:28.456Z,6.38
2022-10-04T04:19:00.384Z,6.30
2022-10-04T04:21:28.489Z,6.75
2022-10-04T04:24:03.891Z,6.20
2022-10-04T04:26:42.512Z,6.97
2022-10-04T04:29:22.674Z,6.25
2022-10-04T04:31:55.266Z,6.88
2022-10-04T04:34:26.747Z,5.68
2022-10-04T04:36:59.056Z,5.10
2022-10-04T04:39:26.555Z,5.40
2022-10-04T04:41:53.558Z,8.05
2022-10-04T04:44:21.301Z,6.57
2022-10-04T04:46:48.499Z,8.45
2022-10-04T04:49:19.138Z,6.93
2022-10-04T04:51:51.214Z,9.70
2022-10-04T04:54:22.588Z,9.65
2022-10-04T04:56:52.767Z,5.18
2022-10-04T04:59:22.614Z,13.18
2022-10-04T05:01:49.997Z,6.00
2022-10-04T05:04:24.859Z,5.53
2022-10-04T05:07:06.715Z,6.10
2022-10-04T05:09:36.370Z,11.60
2022-10-04T05:12:13.372Z,8.70
2022-10-04T05:14:47.355Z,6.57
2022-10-04T05:17:35.183Z,8.87
2022-10-04T05:20:03.889Z,10.25
2022-10-04T05:22:32.773Z,7.35
2022-10-04T05:25:03.426Z,7.68
2022-10-04T05:27:39.692Z,6.80
2022-10-04T05:30:48.296Z,9.83
2022-10-04T05:33:38.727Z,7.18
2022-10-04T05:36:11.771Z,11.23
2022-10-04T05:38:57.377Z,10.65
2022-10-04T05:41:43.259Z,8.52
2022-10-04T05:44:32.174Z,8.83
2022-10-04T05:47:08.051Z,7.03
2022-10-04T05:49:42.461Z,7.35
2022-10-04T05:52:40.017Z,7.47
2022-10-04T05:55:12.813Z,8.15
2022-10-04T05:57:45.731Z,7.73
2022-10-04T06:00:20.426Z,9.73
2022-10-04T06:03:03.955Z,10.32
2022-10-04T06:05:44.465Z,10.57
2022-10-04T06:08:44.775Z,6.93
2022-10-04T06:11:19.297Z,7.10
2022-10-04T06:14:19.645Z,7.60
2022-10-04T06:17:14.815Z,6.10
2022-10-04T06:19:57.968Z,7.50
2022-10-04T06:22:25.221Z,9.05
2022-10-04T06:25:07.421Z,7.30
2022-10-04T06:27:45.818Z,4.85
2022-10-04T06:30:17.069Z,7.18
2022-10-04T06:33:20.808Z,8.05
2022-10-04T06:36:11.089Z,6.25
2022-10-04T06:39:16.384Z,5.80
2022-10-04T06:42:13.775Z,4.82
2022-10-04T06:45:22.853Z,5.10
2022-10-04T06:48:21.097Z,4.25
2022-10-04T06:50:56.857Z,4.45
2022-10-04T06:53:27.893Z,5.27
2022-10-04T06:56:03.617Z,3.72
2022-10-04T06:58:51.631Z,7.10
2022-10-04T07:01:39.249Z,7.15
2022-10-04T07:04:55.779Z,5.07
2022-10-04T07:07:31.567Z,6.17
2022-10-04T07:10:16.698Z,5.70
2022-10-04T07:12:55.419Z,6.45
2022-10-04T07:15:31.743Z,19.73
2022-10-04T07:18:06.678Z,13.00
2022-10-04T07:20:36.572Z,8.33
2022-10-04T07:23:12.099Z,4.10
2022-10-04T07:25:50.278Z,5.47
2022-10-04T07:28:23.910Z,6.20
2022-10-04T07:31:03.102Z,5.80
2022-10-04T07:33:45.013Z,5.37
2022-10-04T07:36:26.983Z,4.18
2022-10-04T07:39:00.049Z,5.40
2022-10-04T07:41:32.448Z,4.80
2022-10-04T07:44:08.618Z,3.95
2022-10-04T07:46:54.627Z,4.20
2022-10-04T07:49:23.672Z,5.05
2022-10-04T07:52:15.413Z,9.23
2022-10-04T07:54:55.049Z,6.07
2022-10-04T07:57:28.421Z,6.75
2022-10-04T08:00:03.374Z,7.27
2022-10-04T08:02:42.864Z,10.25
2022-10-04T08:05:33.250Z,7.05
2022-10-04T08:08:39.072Z,4.60
2022-10-04T08:11:25.650Z,3.72
2022-10-04T08:14:18.572Z,5.00
2022-10-04T08:17:13.063Z,7.10
2022-10-04T08:19:49.829Z,6.05
2022-10-04T08:22:28.441Z,4.18
2022-10-04T08:25:32.249Z,3.88
2022-10-04T08:28:39.609Z,5.57
2022-10-04T08:31:32.154Z,5.18
2022-10-04T08:34:23.111Z,3.80
2022-10-04T08:37:10.460Z,3.35
2022-10-04T08:40:12.634Z,4.93
2022-10-04T08:42:56.006Z,4.80
2022-10-04T08:46:03.346Z,4.95
2022-10-04T08:48:54.235Z,3.45
2022-10-04T08:51:37.824Z,3.40
2022-10-04T08:54:31.055Z,4.30
2022-10-04T08:57:16.710Z,4.40
2022-10-04T09:00:05.226Z,3.75
2022-10-04T09:03:01.684Z,3.83
2022-10-04T09:05:50.694Z,6.32
2022-10-04T09:08:29.118Z,3.95
2022-10-04T09:11:23.103Z,6.10
2022-10-04T09:14:25.618Z,4.10
2022-10-04T09:17:08.886Z,6.50
2022-10-04T09:19:55.077Z,3.22
2022-10-04T09:22:36.339Z,4.38
2022-10-04T09:25:07.221Z,4.40
2022-10-04T09:27:54.946Z,6.85
2022-10-04T09:30:29.375Z,6.53
2022-10-04T09:33:18.472Z,4.32
2022-10-04T09:36:07.996Z,3.65
2022-10-04T09:39:17.949Z,4.13
2022-10-04T09:41:51.247Z,5.05
2022-10-04T09:45:11.534Z,4.82
2022-10-04T09:48:06.594Z,3.50
2022-10-04T09:50:58.501Z,5.53
2022-10-04T09:53:53.976Z,4.33
2022-10-04T09:56:55.692Z,6.18
2022-10-04T09:59:37.037Z,4.53
2022-10-04T10:02:41.865Z,4.70
2022-10-04T10:05:41.336Z,4.80
2022-10-04T10:08:39.740Z,5.57
2022-10-04T10:11:29.853Z,4.35
2022-10-04T10:14:16.293Z,4.13
2022-10-04T10:17:13.057Z,5.47
2022-10-04T10:20:02.752Z,5.90
2022-10-04T10:23:08.061Z,5.87
2022-10-04T10:25:57.105Z,4.80
2022-10-04T10:28:49.379Z,4.47
2022-10-04T10:31:36.727Z,4.47
2022-10-04T10:34:42.247Z,5.05
2022-10-04T10:37:37.650Z,8.73
2022-10-04T10:40:18.272Z,4.95
2022-10-04T10:43:23.997Z,4.00
2022-10-04T10:46:04.959Z,4.80
2022-10-04T10:48:59.143Z,5.20
2022-10-04T10:51:46.140Z,5.23
2022-10-04T10:54:39.714Z,4.90
2022-10-04T10:57:45.408Z,9.35
2022-10-04T11:00:25.838Z,6.28
2022-10-04T11:03:12.185Z,6.43
2022-10-04T11:06:04.695Z,4.17
2022-10-04T11:08:51.815Z,3.90
2022-10-04T11:11:41.656Z,10.13
2022-10-04T11:14:37.057Z,3.78
2022-10-04T11:17:42.829Z,8.60
2022-10-04T11:20:43.183Z,6.37
2022-10-04T11:23:47.753Z,4.43
2022-10-04T11:26:43.165Z,5.43
2022-10-04T11:29:32.974Z,4.75
2022-10-04T11:32:40.703Z,5.97
2022-10-04T11:35:40.187Z,5.13
2022-10-04T11:38:52.500Z,4.70
2022-10-04T11:41:51.672Z,4.55
2022-10-04T11:44:54.815Z,5.00
2022-10-04T11:47:39.909Z,4.63
2022-10-04T11:50:15.235Z,4.57
2022-10-04T11:53:10.629Z,3.70
2022-10-04T11:55:51.512Z,4.85
2022-10-04T11:58:53.468Z,4.72
2022-10-04T12:02:00.942Z,4.03
2022-10-04T12:04:45.366Z,2.93
2022-10-04T12:07:43.108Z,4.78
2022-10-04T12:10:33.315Z,4.53
2022-10-04T12:13:43.833Z,4.60
2022-10-04T12:16:41.885Z,5.38
2022-10-04T12:19:47.857Z,5.13
2022-10-04T12:22:49.235Z,5.40
2022-10-04T12:25:54.383Z,4.15
2022-10-04T12:28:47.488Z,4.00
2022-10-04T12:31:23.920Z,5.00
2022-10-04T12:33:57.295Z,4.17
2022-10-04T12:37:07.969Z,3.50
2022-10-04T12:39:45.137Z,5.72
2022-10-04T12:42:39.949Z,3.80
2022-10-04T12:45:35.425Z,4.40
2022-10-04T12:48:18.731Z,4.40
2022-10-04T12:50:57.365Z,5.72
2022-10-04T12:53:30.669Z,4.63
2022-10-04T12:56:19.555Z,5.57
2022-10-04T12:59:06.837Z,5.10
2022-10-04T13:01:45.705Z,5.07
2022-10-04T13:04:18.937Z,4.30
2022-10-04T13:07:07.109Z,4.60
2022-10-04T13:10:12.188Z,4.20
2022-10-04T13:13:21.537Z,5.18
2022-10-04T13:19:23.614Z,4.60
2022-10-04T13:21:53.947Z,4.40
2022-10-04T13:24:44.791Z,5.15
2022-10-04T13:27:22.671Z,4.18
2022-10-04T13:30:05.315Z,4.87
2022-10-04T13:32:53.383Z,5.88
2022-10-04T13:35:41.457Z,5.68
2022-10-04T13:38:51.376Z,5.30
2022-10-04T13:41:52.607Z,4.90
2022-10-04T13:44:25.565Z,5.87
2022-10-04T13:47:11.307Z,5.30
2022-10-04T13:49:57.426Z,5.57
2022-10-04T13:52:46.575Z,4.00
2022-10-04T13:55:27.790Z,4.63
2022-10-04T13:58:16.434Z,5.47
2022-10-04T14:01:07.664Z,6.05
2022-10-04T14:03:49.172Z,5.75
2022-10-04T14:06:45.874Z,4.75
2022-10-04T14:09:20.055Z,6.45
2022-10-04T14:12:14.929Z,7.87
2022-10-04T14:14:52.489Z,5.50
2022-10-04T14:17:53.712Z,5.18
2022-10-04T14:20:31.069Z,5.00
2022-10-04T14:23:09.758Z,20.92
2022-10-04T14:25:47.492Z,22.73
2022-10-04T14:28:45.763Z,9.50
2022-10-04T14:31:50.407Z,17.52
2022-10-04T14:34:46.289Z,8.70
2022-10-04T14:37:53.898Z,9.15
2022-10-04T14:40:39.897Z,4.50
2022-10-04T14:43:45.262Z,4.82
2022-10-04T14:46:23.738Z,4.53
2022-10-04T14:49:12.007Z,5.45
2022-10-04T14:51:54.069Z,6.72
2022-10-04T14:54:24.853Z,6.70
2022-10-04T14:57:26.311Z,6.10
2022-10-04T15:00:11.149Z,7.90
2022-10-04T15:02:48.153Z,5.10
2022-10-04T15:05:54.553Z,6.70
2022-10-04T15:08:22.748Z,9.50
2022-10-04T15:11:00.727Z,5.53
2022-10-04T15:13:48.998Z,6.57
2022-10-04T15:16:31.721Z,9.80
2022-10-04T15:19:32.340Z,6.82
2022-10-04T15:22:08.230Z,6.93
2022-10-04T15:24:50.709Z,4.47
2022-10-04T15:27:38.256Z,11.23
2022-10-04T15:30:34.090Z,7.05
2022-10-04T15:33:36.832Z,5.43
2022-10-04T15:36:47.903Z,6.97
2022-10-04T15:39:48.590Z,7.65
2022-10-04T15:42:28.656Z,7.95
2022-10-04T15:45:28.589Z,7.82
2022-10-04T15:47:56.441Z,12.25
2022-10-04T15:50:59.141Z,8.27
2022-10-04T15:53:49.233Z,8.52
2022-10-04T15:56:41.993Z,8.88
2022-10-04T15:59:24.556Z,8.15
2022-10-04T16:02:36.945Z,7.88
2022-10-04T16:05:24.223Z,19.23
2022-10-04T16:08:09.834Z,12.00
2022-10-04T16:11:02.133Z,7.10
2022-10-04T16:13:55.270Z,7.05
2022-10-04T16:16:47.061Z,6.47
2022-10-04T16:19:40.967Z,6.40
2022-10-04T16:22:27.832Z,8.68
2022-10-04T16:25:14.931Z,8.43
2022-10-04T16:28:14.595Z,7.78
2022-10-04T16:30:57.995Z,7.00
2022-10-04T16:33:45.298Z,8.43
2022-10-04T16:36:19.598Z,6.50
2022-10-04T16:38:57.869Z,6.97
2022-10-04T16:41:44.217Z,6.90
2022-10-04T16:44:51.971Z,8.38
2022-10-04T16:47:34.234Z,6.50
2022-10-04T16:50:06.546Z,9.13
2022-10-04T16:52:45.659Z,9.38
2022-10-04T16:55:37.299Z,15.63
2022-10-04T16:58:30.017Z,15.13
2022-10-04T17:01:25.471Z,9.90
2022-10-04T17:04:24.024Z,9.02
2022-10-04T17:07:25.233Z,6.22
2022-10-04T17:10:10.033Z,6.90
2022-10-04T17:13:23.392Z,8.25
2022-10-04T17:16:15.893Z,11.47
2022-10-04T17:19:11.573Z,9.98
2022-10-04T17:21:44.714Z,8.18
2022-10-04T17:24:34.472Z,10.90
2022-10-04T17:27:16.461Z,9.25
2022-10-04T17:29:55.141Z,9.10
2022-10-04T17:32:58.940Z,8.82
2022-10-04T17:35:35.556Z,10.32
2022-10-04T17:38:09.557Z,12.00
2022-10-04T17:41:06.329Z,8.60
2022-10-04T17:44:12.872Z,13.67
2022-10-04T17:47:26.135Z,11.45
2022-10-04T17:50:24.233Z,16.42
2022-10-04T17:53:01.555Z,53.67
2022-10-04T17:55:46.787Z,34.97
2022-10-04T17:58:55.232Z,56.67
2022-10-04T18:01:47.431Z,31.90
2022-10-04T18:04:24.073Z,20.95
2022-10-04T18:07:19.989Z,13.68
2022-10-04T18:09:57.453Z,11.48
2022-10-04T18:12:49.452Z,11.90
2022-10-04T18:15:25.823Z,13.18
2022-10-04T18:18:16.236Z,12.20
2022-10-04T18:21:06.509Z,13.25
2022-10-04T18:23:38.587Z,7.72
2022-10-04T18:26:16.669Z,12.60
2022-10-04T18:28:47.255Z,12.07
2022-10-04T18:31:36.645Z,15.82
2022-10-04T18:34:31.753Z,29.65
2022-10-04T18:37:28.334Z,40.88
2022-10-04T18:40:27.350Z,26.80
2022-10-04T18:42:59.030Z,23.50
2022-10-04T18:45:32.752Z,15.50
2022-10-04T18:48:03.691Z,8.95
2022-10-04T18:50:38.693Z,9.95
2022-10-04T18:53:43.745Z,24.23
2022-10-04T18:56:13.491Z,36.63
2022-10-04T18:59:07.593Z,29.45
2022-10-04T19:02:02.183Z,13.90
2022-10-04T19:04:42.291Z,12.52
2022-10-04T19:07:29.832Z,10.50
2022-10-04T19:10:18.765Z,9.88
2022-10-04T19:13:13.703Z,11.18
2022-10-04T19:16:05.169Z,10.57
2022-10-04T19:19:13.333Z,8.90
2022-10-04T19:22:10.568Z,8.60
2022-10-04T19:24:48.526Z,9.73
2022-10-04T19:27:28.372Z,8.13
2022-10-04T19:30:25.329Z,12.18
2022-10-04T19:33:20.914Z,9.32
2022-10-04T19:36:12.856Z,10.43
2022-10-04T19:39:09.047Z,8.52
2022-10-04T19:41:59.850Z,7.78
2022-10-04T19:44:57.349Z,9.63
2022-10-04T19:47:49.575Z,9.05
2022-10-04T19:50:27.127Z,8.50
2022-10-04T19:53:17.770Z,8.00
2022-10-04T19:56:07.750Z,14.27
2022-10-04T19:58:38.190Z,14.88
2022-10-04T20:01:21.983Z,11.05
2022-10-04T20:03:52.467Z,8.60
2022-10-04T20:06:23.350Z,13.10
2022-10-04T20:08:57.985Z,13.20
2022-10-04T20:11:47.034Z,10.02
2022-10-04T20:14:17.387Z,9.52
2022-10-04T20:16:48.085Z,10.20
2022-10-04T20:19:22.820Z,9.50
2022-10-04T20:21:50.106Z,7.75
2022-10-04T20:24:39.092Z,7.13
2022-10-04T20:27:33.711Z,8.23
2022-10-04T20:30:02.595Z,7.07
2022-10-04T20:32:29.910Z,8.35
2022-10-04T20:34:58.594Z,8.13
2022-10-04T20:37:45.410Z,8.80
2022-10-04T20:40:35.128Z,8.75
2022-10-04T20:43:14.629Z,7.43
2022-10-04T20:45:52.218Z,8.05
2022-10-04T20:48:24.452Z,9.15
2022-10-04T20:50:52.754Z,11.95
2022-10-04T20:53:23.090Z,11.55
2022-10-04T20:55:53.109Z,20.97
2022-10-04T20:58:31.351Z,13.05
2022-10-04T21:01:05.264Z,15.25
2022-10-04T21:03:35.530Z,12.85
2022-10-04T21:06:08.020Z,11.52
2022-10-04T21:08:37.074Z,9.60
2022-10-04T21:11:19.880Z,9.35
2022-10-04T21:13:57.800Z,12.32
2022-10-04T21:16:37.251Z,11.25
2022-10-04T21:19:35.349Z,9.18
2022-10-04T21:22:05.250Z,8.97
2022-10-04T21:24:42.252Z,9.90
2022-10-04T21:27:12.458Z,7.75
2022-10-04T21:29:39.937Z,7.28
2022-10-04T21:32:06.977Z,7.05
2022-10-04T21:34:52.517Z,7.90
2022-10-04T21:37:21.151Z,5.97
2022-10-04T21:39:48.292Z,8.50
2022-10-04T21:42:15.766Z,9.43
2022-10-04T21:44:42.731Z,9.27
2022-10-04T21:47:10.408Z,5.30
2022-10-04T21:49:37.407Z,6.00
2022-10-04T21:52:04.539Z,7.43
2022-10-04T21:54:31.591Z,5.22
2022-10-04T21:56:58.366Z,7.00
2022-10-04T21:59:25.649Z,5.80
2022-10-04T22:01:52.913Z,10.13
2022-10-04T22:04:20.155Z,13.70
2022-10-04T22:06:47.527Z,23.35
2022-10-04T22:09:14.847Z,22.70
2022-10-04T22:11:41.831Z,24.97
2022-10-04T22:14:09.889Z,29.23
2022-10-04T22:16:37.060Z,17.80
2022-10-04T22:19:04.502Z,21.50
2022-10-04T22:21:31.896Z,16.75
2022-10-04T22:23:59.274Z,23.27
2022-10-04T22:26:27.014Z,22.92
2022-10-04T22:28:55.898Z,16.50
2022-10-04T22:31:26.976Z,18.88
2022-10-04T22:33:54.581Z,14.73
2022-10-04T22:36:37.073Z,9.30
2022-10-04T22:39:10.553Z,10.27
2022-10-04T22:41:41.125Z,7.85
2022-10-04T22:44:15.311Z,7.93
2022-10-04T22:46:44.880Z,8.15
2022-10-04T22:49:15.528Z,6.17
2022-10-04T22:51:45.555Z,11.05
2022-10-04T22:54:18.619Z,9.02
2022-10-04T22:56:46.756Z,6.90
2022-10-04T22:59:16.715Z,8.27
2022-10-04T23:01:44.030Z,6.30
2022-10-04T23:04:29.151Z,6.30
2022-10-04T23:06:56.255Z,5.38
2022-10-04T23:09:23.253Z,6.22
2022-10-04T23:11:50.915Z,6.13
2022-10-04T23:14:20.592Z,12.47
2022-10-04T23:16:48.038Z,6.75
2022-10-04T23:19:17.326Z,6.30
2022-10-04T23:21:48.995Z,8.38
2022-10-04T23:24:19.055Z,7.20
2022-10-04T23:26:54.762Z,7.27
2022-10-04T23:29:30.204Z,10.45
2022-10-04T23:31:58.151Z,8.65
2022-10-04T23:34:34.777Z,8.88
2022-10-04T23:37:02.671Z,7.38
2022-10-04T23:39:35.315Z,9.57
2022-10-04T23:42:12.839Z,7.05
2022-10-04T23:44:39.972Z,7.75
2022-10-04T23:47:17.073Z,13.50
2022-10-04T23:49:46.649Z,10.23
2022-10-04T23:52:20.613Z,5.90
2022-10-04T23:54:53.579Z,7.30
2022-10-04T23:57:24.091Z,7.50
2022-10-04T23:59:51.769Z,8.43
